createdAt,value
2022-08-05T00:00:25.903Z,23.73
2022-08-05T00:01:00.945Z,23.77
2022-08-05T00:01:49.703Z,23.84
2022-08-05T00:02:21.540Z,23.85
2022-08-05T00:02:53.220Z,23.81
2022-08-05T00:03:24.851Z,23.81
2022-08-05T00:03:57.452Z,23.77
2022-08-05T00:04:29.241Z,23.77
2022-08-05T00:05:00.801Z,23.78
2022-08-05T00:06:04.602Z,23.71
2022-08-05T00:06:33.285Z,23.74
2022-08-05T00:07:27.102Z,23.70
2022-08-05T00:08:01.272Z,23.67
2022-08-05T00:08:34.727Z,23.63
2022-08-05T00:09:13.151Z,23.87
2022-08-05T00:09:47.467Z,23.85
2022-08-05T00:10:19.557Z,23.81
2022-08-05T00:11:00.436Z,23.74
2022-08-05T00:11:35.077Z,23.70
2022-08-05T00:12:20.242Z,23.67
2022-08-05T00:12:56.619Z,23.71
2022-08-05T00:13:38.503Z,23.66
2022-08-05T00:14:12.802Z,23.59
2022-08-05T00:14:48.588Z,23.56
2022-08-05T00:15:57.679Z,23.50
2022-08-05T00:16:16.242Z,23.46
2022-08-05T00:16:53.702Z,23.45
2022-08-05T00:17:25.849Z,23.46
2022-08-05T00:17:57.462Z,23.43
2022-08-05T00:18:34.210Z,23.45
2022-08-05T00:19:05.926Z,23.41
2022-08-05T00:19:44.076Z,23.41
2022-08-05T00:20:29.128Z,23.49
2022-08-05T00:21:01.001Z,23.49
2022-08-05T00:21:35.913Z,23.41
2022-08-05T00:22:07.885Z,23.35
2022-08-05T00:22:55.250Z,23.29
2022-08-05T00:23:45.682Z,23.22
2022-08-05T00:24:19.269Z,23.20
2022-08-05T00:24:56.519Z,23.15
2022-08-05T00:25:28.196Z,23.15
2022-08-05T00:26:17.634Z,23.12
2022-08-05T00:26:50.739Z,23.12
2022-08-05T00:27:28.325Z,23.12
2022-08-05T00:28:07.348Z,23.15
2022-08-05T00:28:45.709Z,23.06
2022-08-05T00:29:17.581Z,23.04
2022-08-05T00:29:49.843Z,23.08
2022-08-05T00:30:21.631Z,23.09
2022-08-05T00:31:04.272Z,23.06
2022-08-05T00:31:53.084Z,23.02
2022-08-05T00:32:27.897Z,22.87
2022-08-05T00:32:59.521Z,22.83
2022-08-05T00:34:54.548Z,22.88
2022-08-05T00:34:55.261Z,22.88
2022-08-05T00:35:14.792Z,22.84
2022-08-05T00:36:15.878Z,22.87
2022-08-05T00:37:12.380Z,22.87
2022-08-05T00:37:52.380Z,22.84
2022-08-05T00:38:28.849Z,22.83
2022-08-05T00:39:05.485Z,22.81
2022-08-05T00:39:57.806Z,22.78
2022-08-05T00:40:30.513Z,22.72
2022-08-05T00:41:02.268Z,22.78
2022-08-05T00:41:51.975Z,22.74
2022-08-05T00:42:33.205Z,22.75
2022-08-05T00:43:07.528Z,22.60
2022-08-05T00:43:46.930Z,22.67
2022-08-05T00:44:21.197Z,22.63
2022-08-05T00:44:54.967Z,22.60
2022-08-05T00:45:37.829Z,22.57
2022-08-05T00:46:11.093Z,22.54
2022-08-05T00:46:43.840Z,22.54
2022-08-05T00:47:15.398Z,22.46
2022-08-05T00:47:56.855Z,22.51
2022-08-05T00:48:36.405Z,22.48
2022-08-05T00:49:23.022Z,22.47
2022-08-05T00:49:54.619Z,22.53
2022-08-05T00:50:26.188Z,22.53
2022-08-05T00:50:57.769Z,22.53
2022-08-05T00:51:51.657Z,22.53
2022-08-05T00:52:28.282Z,22.43
2022-08-05T00:53:00.654Z,22.33
2022-08-05T00:54:00.330Z,22.29
2022-08-05T00:54:28.129Z,22.29
2022-08-05T00:55:02.705Z,22.36
2022-08-05T00:55:43.513Z,22.32
2022-08-05T00:56:17.392Z,22.29
2022-08-05T00:56:54.416Z,22.33
2022-08-05T00:57:38.411Z,22.32
2022-08-05T00:58:19.131Z,22.26
2022-08-05T00:58:50.980Z,22.23
2022-08-05T00:59:25.232Z,22.21
2022-08-05T01:00:07.311Z,22.17
2022-08-05T01:00:43.608Z,22.06
2022-08-05T01:01:42.105Z,22.16
2022-08-05T01:02:08.058Z,22.12
2022-08-05T01:02:40.424Z,22.12
2022-08-05T01:03:22.862Z,22.09
2022-08-05T01:03:55.049Z,22.02
2022-08-05T01:04:29.794Z,22.00
2022-08-05T01:05:02.037Z,21.93
2022-08-05T01:05:41.610Z,21.88
2022-08-05T01:06:14.038Z,21.85
2022-08-05T01:06:51.701Z,21.76
2022-08-05T01:07:24.204Z,21.76
2022-08-05T01:08:30.768Z,21.81
2022-08-05T01:08:55.768Z,21.76
2022-08-05T01:09:28.992Z,21.74
2022-08-05T01:10:03.428Z,21.76
2022-08-05T01:10:52.531Z,21.76
2022-08-05T01:11:36.770Z,21.71
2022-08-05T01:12:18.108Z,21.63
2022-08-05T01:13:05.068Z,21.63
2022-08-05T01:14:03.416Z,21.65
2022-08-05T01:14:37.177Z,21.49
2022-08-05T01:15:35.718Z,21.55
2022-08-05T01:16:10.091Z,21.62
2022-08-05T01:16:52.808Z,21.57
2022-08-05T01:17:53.639Z,21.49
2022-08-05T01:18:32.849Z,21.48
2022-08-05T01:19:36.639Z,21.47
2022-08-05T01:20:27.123Z,21.42
2022-08-05T01:21:22.754Z,21.44
2022-08-05T01:22:28.916Z,21.35
2022-08-05T01:23:24.545Z,21.41
2022-08-05T01:24:43.810Z,21.34
2022-08-05T01:25:52.363Z,21.31
2022-08-05T01:26:44.491Z,21.24
2022-08-05T01:27:41.032Z,21.20
2022-08-05T01:28:37.120Z,21.15
2022-08-05T01:29:23.038Z,21.10
2022-08-05T01:29:58.680Z,21.07
2022-08-05T01:30:35.286Z,21.07
2022-08-05T01:31:56.205Z,21.08
2022-08-05T01:32:31.013Z,21.04
2022-08-05T01:33:09.468Z,21.00
2022-08-05T01:33:49.020Z,21.03
2022-08-05T01:34:28.076Z,21.01
2022-08-05T01:35:10.727Z,20.99
2022-08-05T01:35:51.085Z,20.89
2022-08-05T01:36:29.407Z,20.91
2022-08-05T01:37:07.413Z,20.90
2022-08-05T01:37:47.557Z,20.86
2022-08-05T01:38:27.555Z,20.77
2022-08-05T01:39:02.156Z,20.79
2022-08-05T01:39:47.185Z,20.62
2022-08-05T01:40:22.149Z,20.65
2022-08-05T01:41:01.919Z,20.66
2022-08-05T01:41:37.587Z,20.68
2022-08-05T01:42:13.782Z,20.66
2022-08-05T01:42:48.805Z,20.69
2022-08-05T01:43:24.165Z,20.75
2022-08-05T01:43:57.034Z,20.80
2022-08-05T01:44:34.259Z,20.80
2022-08-05T01:45:08.504Z,20.76
2022-08-05T01:45:42.984Z,20.75
2022-08-05T01:46:16.251Z,20.73
2022-08-05T01:46:49.510Z,20.73
2022-08-05T01:47:30.549Z,20.48
2022-08-05T01:48:12.426Z,20.51
2022-08-05T01:48:49.360Z,20.56
2022-08-05T01:49:24.950Z,20.60
2022-08-05T01:50:02.057Z,20.56
2022-08-05T01:50:39.957Z,20.57
2022-08-05T01:51:13.000Z,20.51
2022-08-05T01:51:51.758Z,20.48
2022-08-05T01:52:25.409Z,20.39
2022-08-05T01:53:03.184Z,20.41
2022-08-05T01:53:54.576Z,20.39
2022-08-05T01:54:46.545Z,20.32
2022-08-05T01:55:22.422Z,20.36
2022-08-05T01:55:59.503Z,20.42
2022-08-05T01:58:10.638Z,20.31
2022-08-05T01:58:18.882Z,20.29
2022-08-05T01:58:44.840Z,20.22
2022-08-05T01:59:21.828Z,20.25
2022-08-05T01:59:58.472Z,20.25
2022-08-05T02:01:14.597Z,20.17
2022-08-05T02:01:51.818Z,20.22
2022-08-05T02:02:29.590Z,20.17
2022-08-05T02:03:31.609Z,20.04
2022-08-05T02:04:07.030Z,20.12
2022-08-05T02:04:42.772Z,20.17
2022-08-05T02:05:23.531Z,20.17
2022-08-05T02:05:57.842Z,20.20
2022-08-05T02:06:37.663Z,20.15
2022-08-05T02:07:10.512Z,20.21
2022-08-05T02:08:00.116Z,20.08
2022-08-05T02:08:40.766Z,20.12
2022-08-05T02:09:16.573Z,20.08
2022-08-05T02:09:52.625Z,20.11
2022-08-05T02:10:28.576Z,20.01
2022-08-05T02:11:24.058Z,20.01
2022-08-05T02:12:14.253Z,20.02
2022-08-05T02:12:55.219Z,20.04
2022-08-05T02:14:02.673Z,19.94
2022-08-05T02:14:47.922Z,19.97
2022-08-05T02:15:33.547Z,19.98
2022-08-05T02:16:30.332Z,19.97
2022-08-05T02:17:29.913Z,19.80
2022-08-05T02:18:27.781Z,19.80
2022-08-05T02:19:19.016Z,19.81
2022-08-05T02:19:55.320Z,19.73
2022-08-05T02:20:30.701Z,19.70
2022-08-05T02:21:15.522Z,19.67
2022-08-05T02:21:58.301Z,19.67
2022-08-05T02:22:36.396Z,19.54
2022-08-05T02:23:13.487Z,19.59
2022-08-05T02:23:51.596Z,19.62
2022-08-05T02:24:28.121Z,19.56
2022-08-05T02:25:08.428Z,19.62
2022-08-05T02:25:49.804Z,19.62
2022-08-05T02:26:38.084Z,19.60
2022-08-05T02:27:30.162Z,19.64
2022-08-05T02:28:29.307Z,19.70
2022-08-05T02:29:04.026Z,19.70
2022-08-05T02:29:59.772Z,19.67
2022-08-05T02:30:37.644Z,19.71
2022-08-05T02:31:28.307Z,19.66
2022-08-05T02:32:04.841Z,19.66
2022-08-05T02:32:38.107Z,19.70
2022-08-05T02:33:16.120Z,19.66
2022-08-05T02:34:02.646Z,19.45
2022-08-05T02:34:35.892Z,19.47
2022-08-05T02:35:19.015Z,19.47
2022-08-05T02:36:00.670Z,19.50
2022-08-05T02:36:36.416Z,19.53
2022-08-05T02:37:10.785Z,19.62
2022-08-05T02:37:47.859Z,19.66
2022-08-05T02:38:35.229Z,19.67
2022-08-05T02:39:10.253Z,19.67
2022-08-05T02:39:42.450Z,19.70
2022-08-05T02:40:21.342Z,19.67
2022-08-05T02:40:54.267Z,19.64
2022-08-05T02:41:28.703Z,19.59
2022-08-05T02:42:09.967Z,19.59
2022-08-05T02:42:59.228Z,19.59
2022-08-05T02:43:33.239Z,19.49
2022-08-05T02:44:13.227Z,19.37
2022-08-05T02:44:46.260Z,19.33
2022-08-05T02:45:19.420Z,19.36
2022-08-05T02:45:56.621Z,19.42
2022-08-05T02:46:34.028Z,19.46
2022-08-05T02:47:09.955Z,19.40
2022-08-05T02:48:07.059Z,19.50
2022-08-05T02:48:35.101Z,19.43
2022-08-05T02:49:11.137Z,19.45
2022-08-05T02:49:44.564Z,19.49
2022-08-05T02:50:18.156Z,19.46
2022-08-05T02:50:51.780Z,19.46
2022-08-05T02:51:28.463Z,19.43
2022-08-05T02:52:30.233Z,19.39
2022-08-05T02:53:03.622Z,19.26
2022-08-05T02:53:39.325Z,19.23
2022-08-05T02:54:34.474Z,19.26
2022-08-05T02:55:10.862Z,18.94
2022-08-05T02:55:55.315Z,18.96
2022-08-05T02:56:33.728Z,18.84
2022-08-05T02:58:09.459Z,18.85
2022-08-05T02:58:09.833Z,18.78
2022-08-05T02:58:45.090Z,18.91
2022-08-05T02:59:27.155Z,18.98
2022-08-05T02:59:59.640Z,18.94
2022-08-05T03:00:35.965Z,18.91
2022-08-05T03:01:11.065Z,18.95
2022-08-05T03:01:43.283Z,18.98
2022-08-05T03:02:20.468Z,19.05
2022-08-05T03:02:52.956Z,19.08
2022-08-05T03:03:26.121Z,19.12
2022-08-05T03:04:02.748Z,19.15
2022-08-05T03:04:44.329Z,19.19
2022-08-05T03:05:17.147Z,19.20
2022-08-05T03:06:56.160Z,19.18
2022-08-05T03:06:57.017Z,19.18
2022-08-05T03:08:01.853Z,19.13
2022-08-05T03:08:29.687Z,19.01
2022-08-05T03:09:02.303Z,18.99
2022-08-05T03:09:38.443Z,18.91
2022-08-05T03:10:21.968Z,18.94
2022-08-05T03:11:41.191Z,18.95
2022-08-05T03:11:55.787Z,18.92
2022-08-05T03:12:39.716Z,18.89
2022-08-05T03:13:17.725Z,18.84
2022-08-05T03:13:51.500Z,18.84
2022-08-05T03:14:35.036Z,18.85
2022-08-05T03:15:17.538Z,18.75
2022-08-05T03:15:49.141Z,18.74
2022-08-05T03:16:23.590Z,18.76
2022-08-05T03:16:55.712Z,18.84
2022-08-05T03:17:27.482Z,18.85
2022-08-05T03:18:00.222Z,18.84
2022-08-05T03:18:31.776Z,18.76
2022-08-05T03:19:12.691Z,18.78
2022-08-05T03:19:49.802Z,18.88
2022-08-05T03:20:21.384Z,19.02
2022-08-05T03:20:55.292Z,19.01
2022-08-05T03:21:28.955Z,18.98
2022-08-05T03:22:16.012Z,19.02
2022-08-05T03:22:49.970Z,19.01
2022-08-05T03:23:24.047Z,19.01
2022-08-05T03:23:56.875Z,19.02
2022-08-05T03:24:30.847Z,19.02
2022-08-05T03:25:31.452Z,18.96
2022-08-05T03:26:30.497Z,18.88
2022-08-05T03:26:49.421Z,18.98
2022-08-05T03:27:22.474Z,19.06
2022-08-05T03:28:04.291Z,19.08
2022-08-05T03:28:36.939Z,19.05
2022-08-05T03:29:12.368Z,19.04
2022-08-05T03:30:08.237Z,19.11
2022-08-05T03:30:41.084Z,19.11
2022-08-05T03:31:18.210Z,18.98
2022-08-05T03:32:06.918Z,19.08
2022-08-05T03:32:41.172Z,18.92
2022-08-05T03:33:13.672Z,18.95
2022-08-05T03:33:52.746Z,18.91
2022-08-05T03:34:27.240Z,18.91
2022-08-05T03:34:59.633Z,18.96
2022-08-05T03:35:41.305Z,18.87
2022-08-05T03:36:13.702Z,18.91
2022-08-05T03:36:45.814Z,18.91
2022-08-05T03:37:18.542Z,18.95
2022-08-05T03:37:50.452Z,18.89
2022-08-05T03:38:33.070Z,18.94
2022-08-05T03:39:08.326Z,18.91
2022-08-05T03:40:01.826Z,18.92
2022-08-05T03:40:39.533Z,18.95
2022-08-05T03:41:11.820Z,18.91
2022-08-05T03:41:45.478Z,19.02
2022-08-05T03:42:18.567Z,18.98
2022-08-05T03:42:52.271Z,18.91
2022-08-05T03:44:09.902Z,18.96
2022-08-05T03:44:19.807Z,18.91
2022-08-05T03:44:51.752Z,18.95
2022-08-05T03:45:23.813Z,18.96
2022-08-05T03:45:58.821Z,18.95
2022-08-05T03:46:32.515Z,19.01
2022-08-05T03:47:04.393Z,19.01
2022-08-05T03:47:41.325Z,19.05
2022-08-05T03:48:14.063Z,19.08
2022-08-05T03:48:53.495Z,18.96
2022-08-05T03:49:51.043Z,18.95
2022-08-05T03:50:17.132Z,18.99
2022-08-05T03:52:38.008Z,19.04
2022-08-05T03:52:39.199Z,19.11
2022-08-05T03:55:51.933Z,19.13
2022-08-05T03:55:52.425Z,19.18
2022-08-05T03:56:04.663Z,19.19
2022-08-05T03:56:27.824Z,19.19
2022-08-05T03:57:16.004Z,19.13
2022-08-05T03:57:53.467Z,19.12
2022-08-05T03:58:29.615Z,19.18
2022-08-05T03:59:04.079Z,19.18
2022-08-05T03:59:47.032Z,19.18
2022-08-05T04:00:25.908Z,19.23
2022-08-05T04:01:02.075Z,19.29
2022-08-05T04:01:39.775Z,19.30
2022-08-05T04:02:17.292Z,19.32
2022-08-05T04:02:58.479Z,19.23
2022-08-05T04:03:35.894Z,19.30
2022-08-05T04:04:11.041Z,19.32
2022-08-05T04:04:44.836Z,19.30
2022-08-05T04:05:17.957Z,19.37
2022-08-05T04:05:50.484Z,19.39
2022-08-05T04:06:23.486Z,19.43
2022-08-05T04:06:59.126Z,19.46
2022-08-05T04:07:33.030Z,19.49
2022-08-05T04:08:29.946Z,19.52
2022-08-05T04:08:59.738Z,19.57
2022-08-05T04:09:32.133Z,19.57
2022-08-05T04:10:09.489Z,19.52
2022-08-05T04:10:43.483Z,19.52
2022-08-05T04:11:15.657Z,19.62
2022-08-05T04:11:50.922Z,19.67
2022-08-05T04:12:24.859Z,19.73
2022-08-05T04:12:58.754Z,19.78
2022-08-05T04:13:50.821Z,19.84
2022-08-05T04:14:29.537Z,19.87
2022-08-05T04:15:03.128Z,19.78
2022-08-05T04:15:36.235Z,19.84
2022-08-05T04:16:09.244Z,19.85
2022-08-05T04:16:46.045Z,19.85
2022-08-05T04:17:17.905Z,19.91
2022-08-05T04:17:57.198Z,19.97
2022-08-05T04:18:29.108Z,20.04
2022-08-05T04:19:02.652Z,20.12
2022-08-05T04:19:46.692Z,20.11
2022-08-05T04:20:26.219Z,20.14
2022-08-05T04:20:58.442Z,20.14
2022-08-05T04:22:09.084Z,20.24
2022-08-05T04:22:21.820Z,20.31
2022-08-05T04:22:53.366Z,20.33
2022-08-05T04:24:05.273Z,20.46
2022-08-05T04:24:19.723Z,20.51
2022-08-05T04:24:54.252Z,20.56
2022-08-05T04:25:56.887Z,20.56
2022-08-05T04:26:17.533Z,20.63
2022-08-05T04:26:49.498Z,20.65
2022-08-05T04:27:41.751Z,20.73
2022-08-05T04:28:13.244Z,20.79
2022-08-05T04:28:51.357Z,20.86
2022-08-05T04:29:23.705Z,20.96
2022-08-05T04:29:58.744Z,20.93
2022-08-05T04:30:35.488Z,21.00
2022-08-05T04:31:08.375Z,21.01
2022-08-05T04:31:43.032Z,21.04
2022-08-05T04:32:14.667Z,21.08
2022-08-05T04:32:51.665Z,21.14
2022-08-05T04:33:54.449Z,21.18
2022-08-05T04:34:31.618Z,21.27
2022-08-05T04:35:05.882Z,21.44
2022-08-05T04:36:11.277Z,21.58
2022-08-05T04:36:45.319Z,21.63
2022-08-05T04:37:18.199Z,21.74
2022-08-05T04:38:02.493Z,21.79
2022-08-05T04:38:39.463Z,21.90
2022-08-05T04:39:11.652Z,22.10
2022-08-05T04:39:44.789Z,22.23
2022-08-05T04:40:24.332Z,22.36
2022-08-05T04:40:55.922Z,22.41
2022-08-05T04:41:36.893Z,22.47
2022-08-05T04:42:09.690Z,22.46
2022-08-05T04:42:41.237Z,22.56
2022-08-05T04:43:16.556Z,22.53
2022-08-05T04:43:52.143Z,22.56
2022-08-05T04:44:30.025Z,22.91
2022-08-05T04:45:01.962Z,22.95
2022-08-05T04:45:48.468Z,22.96
2022-08-05T04:46:28.254Z,23.01
2022-08-05T04:47:09.467Z,23.02
2022-08-05T04:47:42.887Z,23.02
2022-08-05T04:48:28.068Z,23.02
2022-08-05T04:49:00.018Z,23.12
2022-08-05T04:50:01.936Z,23.09
2022-08-05T04:50:37.185Z,23.08
2022-08-05T04:51:17.578Z,23.19
2022-08-05T04:51:49.568Z,23.16
2022-08-05T04:52:33.453Z,23.20
2022-08-05T04:53:06.297Z,23.14
2022-08-05T04:53:40.245Z,23.14
2022-08-05T04:54:12.341Z,23.12
2022-08-05T04:54:44.189Z,23.11
2022-08-05T04:55:15.846Z,23.11
2022-08-05T04:56:33.029Z,23.11
2022-08-05T04:56:44.247Z,23.18
2022-08-05T04:57:15.862Z,23.20
2022-08-05T04:57:51.528Z,23.22
2022-08-05T04:58:25.889Z,23.25
2022-08-05T04:58:57.759Z,23.29
2022-08-05T04:59:36.841Z,23.29
2022-08-05T05:00:11.793Z,23.27
2022-08-05T05:00:45.589Z,23.33
2022-08-05T05:01:33.648Z,23.30
2022-08-05T05:02:37.225Z,23.43
2022-08-05T05:03:06.604Z,23.49
2022-08-05T05:03:42.069Z,23.54
2022-08-05T05:04:14.369Z,23.74
2022-08-05T05:04:48.084Z,23.77
2022-08-05T05:05:28.143Z,23.81
2022-08-05T05:06:38.712Z,23.83
2022-08-05T05:06:57.576Z,23.93
2022-08-05T05:07:32.855Z,23.96
2022-08-05T05:08:14.469Z,24.02
2022-08-05T05:09:00.756Z,24.14
2022-08-05T05:09:37.986Z,24.20
2022-08-05T05:10:09.740Z,24.21
2022-08-05T05:10:47.306Z,24.24
2022-08-05T05:11:41.393Z,24.22
2022-08-05T05:12:19.531Z,24.24
2022-08-05T05:12:51.132Z,24.18
2022-08-05T05:13:22.865Z,24.21
2022-08-05T05:13:55.275Z,24.21
2022-08-05T05:14:27.909Z,24.21
2022-08-05T05:15:04.245Z,24.24
2022-08-05T05:15:56.891Z,24.29
2022-08-05T05:16:30.448Z,24.32
2022-08-05T05:17:03.314Z,24.35
2022-08-05T05:17:56.159Z,24.42
2022-08-05T05:18:33.699Z,24.45
2022-08-05T05:19:18.506Z,24.62
2022-08-05T05:19:54.344Z,24.66
2022-08-05T05:20:28.465Z,24.66
2022-08-05T05:21:00.518Z,24.69
2022-08-05T05:21:33.019Z,24.70
2022-08-05T05:22:24.101Z,24.76
2022-08-05T05:22:58.207Z,24.87
2022-08-05T05:24:01.937Z,24.87
2022-08-05T05:24:21.756Z,24.94
2022-08-05T05:25:00.234Z,25.02
2022-08-05T05:25:41.009Z,25.04
2022-08-05T05:26:12.949Z,25.07
2022-08-05T05:26:46.503Z,25.11
2022-08-05T05:27:19.534Z,25.14
2022-08-05T05:27:53.985Z,25.16
2022-08-05T05:28:27.678Z,25.13
2022-08-05T05:29:01.300Z,25.19
2022-08-05T05:30:03.177Z,25.21
2022-08-05T05:30:29.804Z,25.21
2022-08-05T05:31:03.198Z,25.31
2022-08-05T05:34:02.241Z,25.35
2022-08-05T05:34:34.617Z,25.41
2022-08-05T05:35:06.649Z,25.47
2022-08-05T05:35:42.636Z,25.47
2022-08-05T05:36:14.623Z,25.49
2022-08-05T05:36:47.171Z,25.52
2022-08-05T05:37:22.949Z,25.54
2022-08-05T05:38:13.739Z,25.51
2022-08-05T05:38:46.731Z,25.61
2022-08-05T05:39:19.101Z,25.59
2022-08-05T05:39:51.106Z,25.58
2022-08-05T05:40:26.230Z,25.57
2022-08-05T05:40:59.707Z,25.64
2022-08-05T05:41:40.376Z,25.71
2022-08-05T05:42:28.943Z,25.77
2022-08-05T05:43:02.142Z,25.84
2022-08-05T05:43:56.745Z,25.86
2022-08-05T05:44:36.898Z,25.86
2022-08-05T05:45:09.894Z,25.89
2022-08-05T05:45:59.027Z,25.95
2022-08-05T05:47:30.449Z,26.03
2022-08-05T05:48:19.796Z,26.07
2022-08-05T05:48:59.377Z,26.09
2022-08-05T05:49:38.234Z,26.13
2022-08-05T05:50:16.262Z,26.09
2022-08-05T05:50:52.464Z,26.10
2022-08-05T05:51:25.886Z,26.15
2022-08-05T05:51:59.741Z,26.20
2022-08-05T05:52:34.744Z,26.10
2022-08-05T05:53:21.385Z,26.07
2022-08-05T05:53:58.763Z,26.19
2022-08-05T05:54:49.818Z,26.16
2022-08-05T05:55:22.331Z,26.25
2022-08-05T05:56:00.875Z,26.26
2022-08-05T05:56:35.048Z,26.30
2022-08-05T05:57:13.512Z,26.35
2022-08-05T05:57:52.208Z,26.37
2022-08-05T05:58:31.466Z,26.37
2022-08-05T05:59:07.800Z,26.43
2022-08-05T05:59:40.099Z,26.40
2022-08-05T06:00:16.580Z,26.51
2022-08-05T06:00:48.171Z,26.54
2022-08-05T06:01:23.351Z,26.57
2022-08-05T06:01:57.583Z,26.60
2022-08-05T06:02:36.762Z,26.64
2022-08-05T06:03:28.583Z,26.51
2022-08-05T06:04:03.873Z,26.50
2022-08-05T06:04:35.650Z,26.54
2022-08-05T06:05:16.796Z,26.64
2022-08-05T06:05:58.308Z,26.71
2022-08-05T06:06:34.855Z,26.74
2022-08-05T06:07:06.628Z,26.78
2022-08-05T06:07:41.349Z,26.83
2022-08-05T06:08:14.784Z,26.78
2022-08-05T06:09:07.676Z,26.70
2022-08-05T06:09:59.935Z,26.77
2022-08-05T06:10:36.435Z,26.95
2022-08-05T06:11:09.102Z,27.01
2022-08-05T06:12:01.747Z,27.14
2022-08-05T06:12:35.697Z,27.16
2022-08-05T06:13:13.749Z,27.21
2022-08-05T06:13:50.245Z,27.21
2022-08-05T06:14:27.998Z,27.19
2022-08-05T06:15:01.530Z,27.22
2022-08-05T06:16:28.475Z,27.32
2022-08-05T06:16:30.073Z,27.29
2022-08-05T06:17:22.045Z,27.28
2022-08-05T06:17:55.613Z,27.36
2022-08-05T06:18:30.954Z,27.35
2022-08-05T06:19:05.803Z,27.36
2022-08-05T06:19:39.150Z,27.26
2022-08-05T06:20:18.725Z,27.35
2022-08-05T06:20:54.225Z,27.39
2022-08-05T06:21:36.105Z,27.39
2022-08-05T06:22:09.353Z,27.46
2022-08-05T06:22:40.954Z,27.43
2022-08-05T06:23:14.010Z,27.31
2022-08-05T06:23:46.474Z,27.25
2022-08-05T06:24:27.313Z,27.26
2022-08-05T06:24:59.351Z,27.39
2022-08-05T06:26:12.661Z,27.53
2022-08-05T06:26:24.970Z,27.69
2022-08-05T06:26:56.785Z,27.73
2022-08-05T06:28:12.385Z,27.73
2022-08-05T06:28:21.224Z,27.70
2022-08-05T06:28:53.441Z,27.73
2022-08-05T06:29:52.008Z,27.76
2022-08-05T06:30:19.957Z,27.79
2022-08-05T06:30:52.935Z,27.76
2022-08-05T06:31:30.454Z,27.79
2022-08-05T06:32:03.913Z,27.64
2022-08-05T06:32:35.480Z,27.67
2022-08-05T06:33:10.041Z,27.79
2022-08-05T06:34:07.612Z,27.80
2022-08-05T06:34:34.067Z,27.90
2022-08-05T06:35:21.693Z,27.97
2022-08-05T06:36:07.621Z,27.77
2022-08-05T06:36:57.888Z,27.71
2022-08-05T06:37:57.450Z,27.86
2022-08-05T06:38:36.529Z,28.10
2022-08-05T06:39:08.740Z,28.12
2022-08-05T06:39:40.587Z,28.12
2022-08-05T06:40:14.073Z,28.12
2022-08-05T06:40:50.189Z,28.12
2022-08-05T06:41:22.332Z,28.11
2022-08-05T06:41:53.995Z,28.14
2022-08-05T06:42:25.646Z,28.14
2022-08-05T06:42:57.223Z,28.10
2022-08-05T06:43:58.137Z,28.12
2022-08-05T06:44:22.170Z,28.07
2022-08-05T06:44:53.772Z,27.91
2022-08-05T06:46:03.411Z,27.94
2022-08-05T06:46:16.918Z,28.00
2022-08-05T06:46:50.707Z,28.07
2022-08-05T06:48:11.519Z,28.05
2022-08-05T06:48:53.246Z,28.07
2022-08-05T06:49:07.545Z,28.11
2022-08-05T06:50:01.402Z,28.11
2022-08-05T06:50:31.858Z,28.24
2022-08-05T06:51:09.588Z,28.15
2022-08-05T06:51:42.886Z,28.11
2022-08-05T06:52:37.872Z,28.11
2022-08-05T06:53:19.644Z,28.18
2022-08-05T06:54:03.331Z,28.05
2022-08-05T06:54:34.948Z,28.05
2022-08-05T06:55:07.941Z,28.12
2022-08-05T06:55:42.011Z,28.11
2022-08-05T06:56:26.535Z,27.93
2022-08-05T06:57:58.098Z,28.01
2022-08-05T06:58:02.254Z,28.15
2022-08-05T06:58:42.139Z,28.29
2022-08-05T06:59:18.339Z,28.37
2022-08-05T06:59:55.160Z,28.44
2022-08-05T07:00:31.322Z,28.29
2022-08-05T07:01:07.110Z,28.27
2022-08-05T07:01:40.817Z,28.29
2022-08-05T07:02:14.089Z,28.28
2022-08-05T07:02:47.457Z,28.34
2022-08-05T07:03:27.991Z,28.45
2022-08-05T07:04:04.342Z,28.53
2022-08-05T07:04:36.438Z,28.53
2022-08-05T07:05:18.731Z,28.58
2022-08-05T07:05:51.183Z,28.69
2022-08-05T07:06:23.339Z,28.75
2022-08-05T07:06:54.964Z,28.72
2022-08-05T07:07:43.088Z,28.78
2022-08-05T07:08:14.938Z,28.83
2022-08-05T07:08:47.838Z,28.84
2022-08-05T07:09:24.766Z,28.78
2022-08-05T07:09:58.288Z,28.79
2022-08-05T07:10:32.499Z,28.86
2022-08-05T07:11:05.267Z,28.80
2022-08-05T07:11:51.461Z,28.79
2022-08-05T07:12:42.182Z,28.86
2022-08-05T07:13:57.865Z,28.88
2022-08-05T07:14:49.479Z,28.96
2022-08-05T07:16:00.816Z,28.95
2022-08-05T07:17:58.198Z,28.72
2022-08-05T07:18:01.766Z,28.84
2022-08-05T07:18:34.943Z,29.00
2022-08-05T07:19:06.614Z,28.75
2022-08-05T07:20:16.782Z,28.76
2022-08-05T07:20:33.471Z,28.86
2022-08-05T07:21:06.210Z,28.99
2022-08-05T07:22:00.306Z,29.03
2022-08-05T07:22:33.515Z,29.19
2022-08-05T07:23:05.690Z,29.30
2022-08-05T07:23:40.600Z,29.34
2022-08-05T07:24:22.161Z,29.40
2022-08-05T07:24:53.814Z,29.20
2022-08-05T07:25:54.641Z,29.30
2022-08-05T07:26:22.452Z,29.37
2022-08-05T07:26:54.458Z,29.46
2022-08-05T07:27:27.544Z,29.33
2022-08-05T07:28:17.686Z,29.21
2022-08-05T07:28:50.825Z,29.24
2022-08-05T07:29:25.318Z,29.35
2022-08-05T07:30:24.084Z,29.43
2022-08-05T07:31:00.024Z,29.53
2022-08-05T07:31:40.435Z,29.62
2022-08-05T07:32:26.110Z,29.72
2022-08-05T07:32:57.963Z,29.82
2022-08-05T07:33:36.728Z,29.85
2022-08-05T07:34:09.466Z,29.96
2022-08-05T07:34:45.596Z,30.05
2022-08-05T07:36:05.023Z,30.09
2022-08-05T07:36:21.135Z,30.16
2022-08-05T07:36:53.252Z,30.22
2022-08-05T07:37:29.094Z,30.04
2022-08-05T07:38:12.265Z,30.12
2022-08-05T07:38:44.289Z,30.25
2022-08-05T07:39:24.622Z,30.05
2022-08-05T07:40:32.600Z,30.27
2022-08-05T07:41:04.456Z,30.27
2022-08-05T07:42:08.074Z,30.40
2022-08-05T07:42:41.702Z,30.46
2022-08-05T07:43:20.830Z,30.43
2022-08-05T07:43:56.445Z,30.56
2022-08-05T07:44:28.416Z,30.59
2022-08-05T07:45:00.762Z,30.60
2022-08-05T07:45:57.647Z,30.59
2022-08-05T07:46:26.755Z,30.59
2022-08-05T07:46:58.604Z,30.74
2022-08-05T07:47:42.608Z,30.83
2022-08-05T07:48:14.296Z,30.81
2022-08-05T07:49:07.810Z,30.94
2022-08-05T07:49:43.334Z,31.12
2022-08-05T07:50:16.463Z,31.28
2022-08-05T07:50:48.323Z,31.36
2022-08-05T07:51:23.578Z,31.50
2022-08-05T07:52:08.273Z,31.65
2022-08-05T07:52:43.395Z,31.65
2022-08-05T07:53:15.948Z,31.61
2022-08-05T07:53:50.261Z,31.55
2022-08-05T07:54:30.604Z,31.52
2022-08-05T07:55:03.618Z,31.32
2022-08-05T07:56:06.350Z,31.50
2022-08-05T07:57:13.712Z,31.46
2022-08-05T07:57:51.372Z,31.74
2022-08-05T07:58:57.321Z,32.03
2022-08-05T07:59:14.063Z,32.14
2022-08-05T07:59:46.931Z,32.27
2022-08-05T08:00:20.634Z,32.21
2022-08-05T08:00:53.457Z,32.14
2022-08-05T08:01:26.070Z,32.21
2022-08-05T08:02:03.214Z,32.14
2022-08-05T08:03:14.973Z,32.09
2022-08-05T08:03:44.572Z,32.10
2022-08-05T08:04:16.613Z,32.30
2022-08-05T08:04:55.303Z,32.24
2022-08-05T08:05:27.383Z,32.17
2022-08-05T08:05:58.941Z,31.94
2022-08-05T08:06:31.220Z,31.84
2022-08-05T08:07:05.348Z,32.04
2022-08-05T08:07:39.445Z,32.10
2022-08-05T08:08:26.049Z,32.30
2022-08-05T08:08:57.738Z,32.13
2022-08-05T08:09:29.713Z,32.31
2022-08-05T08:10:01.791Z,32.30
2022-08-05T08:10:33.402Z,32.45
2022-08-05T08:11:05.055Z,32.57
2022-08-05T08:11:49.451Z,32.79
2022-08-05T08:12:48.935Z,32.95
2022-08-05T08:13:22.165Z,33.22
2022-08-05T08:14:01.290Z,33.10
2022-08-05T08:14:32.922Z,33.03
2022-08-05T08:15:13.972Z,33.09
2022-08-05T08:16:34.774Z,33.00
2022-08-05T08:16:51.015Z,33.39
2022-08-05T08:17:27.760Z,33.23
2022-08-05T08:18:01.843Z,33.51
2022-08-05T08:18:34.103Z,33.80
2022-08-05T08:19:09.110Z,33.95
2022-08-05T08:20:44.605Z,34.11
2022-08-05T08:21:01.950Z,34.14
2022-08-05T08:21:35.304Z,34.22
2022-08-05T08:22:09.080Z,34.32
2022-08-05T08:22:40.826Z,34.63
2022-08-05T08:24:03.403Z,34.24
2022-08-05T08:24:13.581Z,34.45
2022-08-05T08:24:51.573Z,34.52
2022-08-05T08:25:26.486Z,34.55
2022-08-05T08:26:00.896Z,34.82
2022-08-05T08:26:34.576Z,34.53
2022-08-05T08:27:07.192Z,34.67
2022-08-05T08:27:45.075Z,34.46
2022-08-05T08:28:36.673Z,34.56
2022-08-05T08:29:29.526Z,34.43
2022-08-05T08:30:05.938Z,34.51
2022-08-05T08:30:52.333Z,34.29
2022-08-05T08:31:24.064Z,34.49
2022-08-05T08:31:58.636Z,34.46
2022-08-05T08:32:30.787Z,34.09